Accueil
METAR-TAF:

METAR-TAF

Aéroports :

Aéroport d'Annecy Haute-Savoie Mont-Blanc

Annecy, France

latitude: 45-55-45N, longitude: 006-05-56E, altitude: 463 m

Observation

Le bulletin a été fait il y a 34 minutes, à 23:00 UTC
Vent 3 kt de sud, variant entre est/sud-est et ouest/sud-ouest
Température 3°C
Humidité 75%
Pression 994 hPa
Visibilité 10 km ou plus
pas de nuages en-dessous de 1500 mètres et pas de cumulonimbus.

METAR: LFLP 032300Z AUTO 17003KT 110V250 CAVOK 03/M01 Q0994

Heure: 00:34 (23:34 UTC)

Prévision

Le bulletin a été fait il y a 9 heures et 34 minutes, à 14:00 UTC
Prévision valable du 03 à 15 UTC au 04 à 15 UTC
Vent 2 kt de direction variable
Visibilité 10 km ou plus
pas de nuages en-dessous de 1500 mètres et pas de cumulonimbus.
Evoluant progressivement
du 04 à 04 UTC au 04 à 06 UTC
Ciel couvert à une hauteur de 4000 ft
pluie faible

TAF: LFLP 031400Z 0315/0415 VRB02KT CAVOK BECMG 0404/0406 -RA OVC040

Observations et prévisions météorologiques de plus de 4000 aéroports (messages METAR et TAF).

Les stations disponibles sont représentées par des disques jaunes et rouges sur la carte.

Passer la souris dessus pour voir le nom de la station.

Cliquer dessus pour voir les observations et prévisions météorologiques.

Pour changer de carte: cliquez sur les boutons verts avec une croix noire pour zoomer, sur le bouton vert avec un tiret pour effectuer un zoom arrière, ou sur les flèches vertes pour les cartes adjacentes.


METAR-TAF: